sensor_id;sensor_type;location;lat;lon;timestamp;P1;durP1;ratioP1;P2;durP2;ratioP2
13797;SDS011;6970;51.340;3.240;2023-08-17T00:02:08;7.73;;;3.50;;
13797;SDS011;6970;51.340;3.240;2023-08-17T00:04:38;7.70;;;3.67;;
13797;SDS011;6970;51.340;3.240;2023-08-17T00:07:09;3.73;;;3.37;;
13797;SDS011;6970;51.340;3.240;2023-08-17T00:12:10;10.63;;;3.97;;
13797;SDS011;6970;51.340;3.240;2023-08-17T00:14:38;9.97;;;3.70;;
13797;SDS011;6970;51.340;3.240;2023-08-17T00:17:05;7.87;;;3.10;;
13797;SDS011;6970;51.340;3.240;2023-08-17T00:19:32;7.87;;;3.60;;
13797;SDS011;6970;51.340;3.240;2023-08-17T00:21:59;5.80;;;3.10;;
13797;SDS011;6970;51.340;3.240;2023-08-17T00:24:27;7.60;;;3.43;;
13797;SDS011;6970;51.340;3.240;2023-08-17T00:26:56;7.20;;;2.93;;
13797;SDS011;6970;51.340;3.240;2023-08-17T00:29:24;7.00;;;3.67;;
13797;SDS011;6970;51.340;3.240;2023-08-17T00:31:51;5.90;;;3.27;;
13797;SDS011;6970;51.340;3.240;2023-08-17T00:34:19;6.13;;;3.20;;
13797;SDS011;6970;51.340;3.240;2023-08-17T00:36:50;6.23;;;2.80;;
13797;SDS011;6970;51.340;3.240;2023-08-17T00:39:18;5.13;;;2.93;;
13797;SDS011;6970;51.340;3.240;2023-08-17T00:41:47;7.13;;;2.93;;
13797;SDS011;6970;51.340;3.240;2023-08-17T00:44:14;6.37;;;3.10;;
13797;SDS011;6970;51.340;3.240;2023-08-17T00:46:44;10.87;;;3.97;;
13797;SDS011;6970;51.340;3.240;2023-08-17T00:49:11;6.10;;;3.30;;
13797;SDS011;6970;51.340;3.240;2023-08-17T00:51:40;7.53;;;2.93;;
13797;SDS011;6970;51.340;3.240;2023-08-17T00:54:08;6.43;;;3.43;;
13797;SDS011;6970;51.340;3.240;2023-08-17T00:56:36;4.57;;;3.13;;
13797;SDS011;6970;51.340;3.240;2023-08-17T00:59:04;7.13;;;3.13;;
13797;SDS011;6970;51.340;3.240;2023-08-17T01:01:32;9.63;;;2.90;;
13797;SDS011;6970;51.340;3.240;2023-08-17T01:03:59;9.20;;;3.00;;
13797;SDS011;6970;51.340;3.240;2023-08-17T01:06:27;8.43;;;3.10;;
13797;SDS011;6970;51.340;3.240;2023-08-17T01:08:54;6.63;;;3.00;;
13797;SDS011;6970;51.340;3.240;2023-08-17T01:14:09;5.57;;;2.93;;
13797;SDS011;6970;51.340;3.240;2023-08-17T01:17:06;4.17;;;2.53;;
13797;SDS011;6970;51.340;3.240;2023-08-17T01:19:41;5.47;;;3.00;;
13797;SDS011;6970;51.340;3.240;2023-08-17T01:22:11;5.73;;;2.77;;
13797;SDS011;6970;51.340;3.240;2023-08-17T01:24:44;6.37;;;2.90;;
13797;SDS011;6970;51.340;3.240;2023-08-17T01:29:41;6.50;;;2.90;;
13797;SDS011;6970;51.340;3.240;2023-08-17T01:32:26;7.90;;;3.20;;
13797;SDS011;6970;51.340;3.240;2023-08-17T01:34:58;10.83;;;3.63;;
13797;SDS011;6970;51.340;3.240;2023-08-17T01:45:13;6.03;;;2.93;;
13797;SDS011;6970;51.340;3.240;2023-08-17T01:47:41;6.10;;;3.20;;
13797;SDS011;6970;51.340;3.240;2023-08-17T01:50:14;5.23;;;3.00;;
13797;SDS011;6970;51.340;3.240;2023-08-17T01:55:11;5.30;;;3.20;;
13797;SDS011;6970;51.340;3.240;2023-08-17T02:00:10;6.87;;;3.33;;
13797;SDS011;6970;51.340;3.240;2023-08-17T02:05:08;5.70;;;3.30;;
13797;SDS011;6970;51.340;3.240;2023-08-17T02:12:38;4.70;;;2.87;;
13797;SDS011;6970;51.340;3.240;2023-08-17T02:17:38;8.30;;;3.07;;
13797;SDS011;6970;51.340;3.240;2023-08-17T02:20:11;9.57;;;3.53;;
13797;SDS011;6970;51.340;3.240;2023-08-17T02:22:39;8.37;;;3.50;;
13797;SDS011;6970;51.340;3.240;2023-08-17T02:25:08;8.17;;;3.30;;
13797;SDS011;6970;51.340;3.240;2023-08-17T02:30:07;7.33;;;3.07;;
13797;SDS011;6970;51.340;3.240;2023-08-17T02:32:34;7.47;;;3.10;;
13797;SDS011;6970;51.340;3.240;2023-08-17T02:35:05;3.70;;;2.57;;
13797;SDS011;6970;51.340;3.240;2023-08-17T02:37:33;9.93;;;3.30;;
13797;SDS011;6970;51.340;3.240;2023-08-17T02:40:03;5.10;;;2.87;;
13797;SDS011;6970;51.340;3.240;2023-08-17T02:42:36;7.70;;;2.83;;
13797;SDS011;6970;51.340;3.240;2023-08-17T02:45:06;7.00;;;3.10;;
13797;SDS011;6970;51.340;3.240;2023-08-17T02:47:35;7.90;;;3.23;;
13797;SDS011;6970;51.340;3.240;2023-08-17T02:50:03;7.53;;;3.33;;
13797;SDS011;6970;51.340;3.240;2023-08-17T02:52:31;7.77;;;3.37;;
13797;SDS011;6970;51.340;3.240;2023-08-17T02:59:59;5.37;;;2.90;;
13797;SDS011;6970;51.340;3.240;2023-08-17T03:02:27;5.33;;;2.87;;
13797;SDS011;6970;51.340;3.240;2023-08-17T03:04:56;7.20;;;3.53;;
13797;SDS011;6970;51.340;3.240;2023-08-17T03:07:26;6.97;;;2.80;;
13797;SDS011;6970;51.340;3.240;2023-08-17T03:09:54;7.37;;;3.10;;
13797;SDS011;6970;51.340;3.240;2023-08-17T03:12:24;5.27;;;3.00;;
13797;SDS011;6970;51.340;3.240;2023-08-17T03:14:53;3.77;;;2.43;;
13797;SDS011;6970;51.340;3.240;2023-08-17T03:17:20;6.40;;;3.00;;
13797;SDS011;6970;51.340;3.240;2023-08-17T03:19:50;7.20;;;3.40;;
13797;SDS011;6970;51.340;3.240;2023-08-17T03:24:51;8.27;;;3.30;;
13797;SDS011;6970;51.340;3.240;2023-08-17T03:29:49;4.60;;;2.83;;
13797;SDS011;6970;51.340;3.240;2023-08-17T03:39:49;5.23;;;2.20;;
13797;SDS011;6970;51.340;3.240;2023-08-17T03:42:19;7.57;;;2.30;;
13797;SDS011;6970;51.340;3.240;2023-08-17T03:44:47;6.93;;;2.33;;
13797;SDS011;6970;51.340;3.240;2023-08-17T03:47:14;6.63;;;2.50;;
13797;SDS011;6970;51.340;3.240;2023-08-17T03:49:41;5.20;;;2.60;;
13797;SDS011;6970;51.340;3.240;2023-08-17T03:52:10;5.53;;;2.40;;
13797;SDS011;6970;51.340;3.240;2023-08-17T03:54:37;3.17;;;2.20;;
13797;SDS011;6970;51.340;3.240;2023-08-17T03:57:05;5.80;;;2.80;;
13797;SDS011;6970;51.340;3.240;2023-08-17T04:02:08;4.60;;;2.83;;
13797;SDS011;6970;51.340;3.240;2023-08-17T04:04:38;6.27;;;2.70;;
13797;SDS011;6970;51.340;3.240;2023-08-17T04:09:36;3.23;;;2.10;;
13797;SDS011;6970;51.340;3.240;2023-08-17T04:12:03;5.30;;;2.80;;
13797;SDS011;6970;51.340;3.240;2023-08-17T04:14:35;6.23;;;2.20;;
13797;SDS011;6970;51.340;3.240;2023-08-17T04:17:02;5.27;;;2.57;;
13797;SDS011;6970;51.340;3.240;2023-08-17T04:19:32;5.87;;;2.80;;
13797;SDS011;6970;51.340;3.240;2023-08-17T04:22:00;5.87;;;2.13;;
13797;SDS011;6970;51.340;3.240;2023-08-17T04:24:29;6.93;;;2.37;;
13797;SDS011;6970;51.340;3.240;2023-08-17T04:26:58;3.80;;;2.10;;
13797;SDS011;6970;51.340;3.240;2023-08-17T04:29:27;3.27;;;1.87;;
13797;SDS011;6970;51.340;3.240;2023-08-17T04:31:54;3.53;;;2.00;;
13797;SDS011;6970;51.340;3.240;2023-08-17T04:34:21;5.53;;;2.37;;
13797;SDS011;6970;51.340;3.240;2023-08-17T04:36:55;4.23;;;1.70;;
13797;SDS011;6970;51.340;3.240;2023-08-17T04:39:23;4.00;;;2.23;;
13797;SDS011;6970;51.340;3.240;2023-08-17T04:41:51;3.27;;;2.03;;
13797;SDS011;6970;51.340;3.240;2023-08-17T04:44:18;4.00;;;1.97;;
13797;SDS011;6970;51.340;3.240;2023-08-17T04:46:45;6.70;;;2.20;;
13797;SDS011;6970;51.340;3.240;2023-08-17T04:49:13;2.80;;;1.70;;
13797;SDS011;6970;51.340;3.240;2023-08-17T04:51:42;4.10;;;2.20;;
13797;SDS011;6970;51.340;3.240;2023-08-17T04:56:40;6.87;;;2.17;;
13797;SDS011;6970;51.340;3.240;2023-08-17T04:59:07;2.60;;;1.70;;
13797;SDS011;6970;51.340;3.240;2023-08-17T05:06:41;3.03;;;1.97;;
13797;SDS011;6970;51.340;3.240;2023-08-17T05:09:09;5.20;;;1.87;;
13797;SDS011;6970;51.340;3.240;2023-08-17T05:11:39;3.13;;;1.80;;
13797;SDS011;6970;51.340;3.240;2023-08-17T05:14:08;3.70;;;2.17;;
13797;SDS011;6970;51.340;3.240;2023-08-17T05:16:36;3.57;;;2.20;;
13797;SDS011;6970;51.340;3.240;2023-08-17T05:19:03;4.13;;;1.90;;
13797;SDS011;6970;51.340;3.240;2023-08-17T05:24:02;5.10;;;1.90;;
13797;SDS011;6970;51.340;3.240;2023-08-17T05:26:31;5.27;;;2.30;;
13797;SDS011;6970;51.340;3.240;2023-08-17T05:29:00;6.37;;;1.80;;
13797;SDS011;6970;51.340;3.240;2023-08-17T05:31:28;3.70;;;2.10;;
13797;SDS011;6970;51.340;3.240;2023-08-17T05:33:56;4.57;;;2.00;;
13797;SDS011;6970;51.340;3.240;2023-08-17T05:36:26;3.50;;;1.60;;
13797;SDS011;6970;51.340;3.240;2023-08-17T05:38:54;3.57;;;1.70;;
13797;SDS011;6970;51.340;3.240;2023-08-17T05:41:21;4.17;;;2.20;;
13797;SDS011;6970;51.340;3.240;2023-08-17T05:43:52;2.87;;;1.87;;
13797;SDS011;6970;51.340;3.240;2023-08-17T05:48:51;3.50;;;1.80;;
13797;SDS011;6970;51.340;3.240;2023-08-17T05:53:51;4.30;;;1.70;;
13797;SDS011;6970;51.340;3.240;2023-08-17T05:56:22;2.97;;;1.87;;
13797;SDS011;6970;51.340;3.240;2023-08-17T05:58:49;4.63;;;1.97;;
13797;SDS011;6970;51.340;3.240;2023-08-17T06:01:20;7.00;;;2.10;;
13797;SDS011;6970;51.340;3.240;2023-08-17T06:06:19;3.67;;;2.10;;
13797;SDS011;6970;51.340;3.240;2023-08-17T06:11:19;4.57;;;2.10;;
13797;SDS011;6970;51.340;3.240;2023-08-17T06:13:49;7.10;;;2.60;;
13797;SDS011;6970;51.340;3.240;2023-08-17T06:16:17;6.47;;;2.73;;
13797;SDS011;6970;51.340;3.240;2023-08-17T06:18:47;5.80;;;1.93;;
13797;SDS011;6970;51.340;3.240;2023-08-17T06:23:47;7.07;;;2.00;;
13797;SDS011;6970;51.340;3.240;2023-08-17T06:26:18;6.03;;;2.47;;
13797;SDS011;6970;51.340;3.240;2023-08-17T06:28:47;12.03;;;2.73;;
13797;SDS011;6970;51.340;3.240;2023-08-17T06:31:17;6.17;;;2.10;;
13797;SDS011;6970;51.340;3.240;2023-08-17T06:33:45;6.23;;;2.03;;
13797;SDS011;6970;51.340;3.240;2023-08-17T06:36:15;5.47;;;2.07;;
13797;SDS011;6970;51.340;3.240;2023-08-17T06:38:45;6.00;;;1.90;;
13797;SDS011;6970;51.340;3.240;2023-08-17T06:41:12;2.53;;;1.47;;
13797;SDS011;6970;51.340;3.240;2023-08-17T06:43:39;4.03;;;2.03;;
13797;SDS011;6970;51.340;3.240;2023-08-17T06:46:08;3.70;;;1.93;;
13797;SDS011;6970;51.340;3.240;2023-08-17T06:48:36;5.57;;;2.07;;
13797;SDS011;6970;51.340;3.240;2023-08-17T06:51:04;5.40;;;2.00;;
13797;SDS011;6970;51.340;3.240;2023-08-17T06:53:32;4.73;;;1.97;;
13797;SDS011;6970;51.340;3.240;2023-08-17T06:56:00;4.57;;;2.10;;
13797;SDS011;6970;51.340;3.240;2023-08-17T06:58:29;5.57;;;2.10;;
13797;SDS011;6970;51.340;3.240;2023-08-17T07:00:56;3.97;;;1.67;;
13797;SDS011;6970;51.340;3.240;2023-08-17T07:03:24;7.47;;;1.83;;
13797;SDS011;6970;51.340;3.240;2023-08-17T07:05:53;7.57;;;2.30;;
13797;SDS011;6970;51.340;3.240;2023-08-17T07:08:23;4.90;;;1.90;;
13797;SDS011;6970;51.340;3.240;2023-08-17T07:10:52;7.53;;;2.47;;
13797;SDS011;6970;51.340;3.240;2023-08-17T07:13:25;10.80;;;2.30;;
13797;SDS011;6970;51.340;3.240;2023-08-17T07:15:52;7.90;;;2.00;;
13797;SDS011;6970;51.340;3.240;2023-08-17T07:18:20;4.70;;;2.10;;
13797;SDS011;6970;51.340;3.240;2023-08-17T07:20:49;9.40;;;2.60;;
13797;SDS011;6970;51.340;3.240;2023-08-17T07:23:18;8.53;;;2.43;;
13797;SDS011;6970;51.340;3.240;2023-08-17T07:28:16;7.13;;;2.30;;
13797;SDS011;6970;51.340;3.240;2023-08-17T07:30:43;8.43;;;2.30;;
13797;SDS011;6970;51.340;3.240;2023-08-17T07:33:11;5.43;;;2.20;;
13797;SDS011;6970;51.340;3.240;2023-08-17T07:35:39;4.97;;;2.30;;
13797;SDS011;6970;51.340;3.240;2023-08-17T07:38:06;4.77;;;2.40;;
13797;SDS011;6970;51.340;3.240;2023-08-17T07:40:38;6.50;;;2.10;;
13797;SDS011;6970;51.340;3.240;2023-08-17T07:43:08;7.47;;;2.10;;
13797;SDS011;6970;51.340;3.240;2023-08-17T07:45:35;6.23;;;1.90;;
13797;SDS011;6970;51.340;3.240;2023-08-17T07:48:04;5.53;;;1.93;;
13797;SDS011;6970;51.340;3.240;2023-08-17T07:50:33;7.03;;;1.87;;
13797;SDS011;6970;51.340;3.240;2023-08-17T07:53:03;4.60;;;1.87;;
13797;SDS011;6970;51.340;3.240;2023-08-17T07:58:02;4.43;;;1.70;;
13797;SDS011;6970;51.340;3.240;2023-08-17T08:00:34;4.23;;;2.07;;
13797;SDS011;6970;51.340;3.240;2023-08-17T08:05:34;8.27;;;2.30;;
13797;SDS011;6970;51.340;3.240;2023-08-17T08:08:02;9.60;;;2.90;;
13797;SDS011;6970;51.340;3.240;2023-08-17T08:10:31;6.70;;;2.43;;
13797;SDS011;6970;51.340;3.240;2023-08-17T08:18:01;6.60;;;1.40;;
13797;SDS011;6970;51.340;3.240;2023-08-17T08:20:34;6.17;;;2.43;;
13797;SDS011;6970;51.340;3.240;2023-08-17T08:23:04;7.10;;;2.10;;
13797;SDS011;6970;51.340;3.240;2023-08-17T08:25:31;6.47;;;2.20;;
13797;SDS011;6970;51.340;3.240;2023-08-17T08:27:58;11.30;;;2.27;;
13797;SDS011;6970;51.340;3.240;2023-08-17T08:30:25;6.20;;;2.00;;
13797;SDS011;6970;51.340;3.240;2023-08-17T08:35:27;6.50;;;1.83;;
13797;SDS011;6970;51.340;3.240;2023-08-17T08:37:55;12.68;;;3.08;;
13797;SDS011;6970;51.340;3.240;2023-08-17T08:40:28;8.60;;;2.00;;
13797;SDS011;6970;51.340;3.240;2023-08-17T08:42:56;6.80;;;1.93;;
13797;SDS011;6970;51.340;3.240;2023-08-17T08:47:59;7.28;;;2.22;;
13797;SDS011;6970;51.340;3.240;2023-08-17T08:50:27;6.72;;;2.22;;
13797;SDS011;6970;51.340;3.240;2023-08-17T08:53:01;8.55;;;2.20;;
13797;SDS011;6970;51.340;3.240;2023-08-17T08:55:34;7.03;;;2.20;;
13797;SDS011;6970;51.340;3.240;2023-08-17T08:58:11;4.80;;;1.65;;
13797;SDS011;6970;51.340;3.240;2023-08-17T09:00:40;5.70;;;1.70;;
13797;SDS011;6970;51.340;3.240;2023-08-17T09:03:08;5.93;;;1.92;;
13797;SDS011;6970;51.340;3.240;2023-08-17T09:05:38;5.03;;;2.03;;
13797;SDS011;6970;51.340;3.240;2023-08-17T09:08:08;3.38;;;1.67;;
13797;SDS011;6970;51.340;3.240;2023-08-17T09:13:13;4.38;;;1.95;;
13797;SDS011;6970;51.340;3.240;2023-08-17T09:15:41;7.95;;;2.42;;
13797;SDS011;6970;51.340;3.240;2023-08-17T09:18:11;5.25;;;2.00;;
13797;SDS011;6970;51.340;3.240;2023-08-17T09:20:41;4.03;;;2.22;;
13797;SDS011;6970;51.340;3.240;2023-08-17T09:23:17;5.07;;;2.45;;
13797;SDS011;6970;51.340;3.240;2023-08-17T09:28:22;4.20;;;2.30;;
13797;SDS011;6970;51.340;3.240;2023-08-17T09:31:02;4.72;;;1.88;;
13797;SDS011;6970;51.340;3.240;2023-08-17T09:33:32;7.07;;;2.17;;
13797;SDS011;6970;51.340;3.240;2023-08-17T09:36:02;3.67;;;2.00;;
13797;SDS011;6970;51.340;3.240;2023-08-17T09:38:29;4.03;;;2.08;;
13797;SDS011;6970;51.340;3.240;2023-08-17T09:40:57;5.22;;;2.17;;
13797;SDS011;6970;51.340;3.240;2023-08-17T09:43:25;4.90;;;2.38;;
13797;SDS011;6970;51.340;3.240;2023-08-17T09:48:25;7.60;;;2.33;;
13797;SDS011;6970;51.340;3.240;2023-08-17T09:50:58;6.78;;;2.20;;
13797;SDS011;6970;51.340;3.240;2023-08-17T09:58:38;11.40;;;2.60;;
13797;SDS011;6970;51.340;3.240;2023-08-17T10:01:05;7.95;;;3.38;;
13797;SDS011;6970;51.340;3.240;2023-08-17T10:03:34;12.10;;;2.90;;
13797;SDS011;6970;51.340;3.240;2023-08-17T10:06:09;4.35;;;2.30;;
13797;SDS011;6970;51.340;3.240;2023-08-17T10:08:47;6.03;;;2.30;;
13797;SDS011;6970;51.340;3.240;2023-08-17T10:11:21;8.07;;;2.50;;
13797;SDS011;6970;51.340;3.240;2023-08-17T10:13:51;11.18;;;2.65;;
13797;SDS011;6970;51.340;3.240;2023-08-17T10:16:49;6.45;;;2.38;;
13797;SDS011;6970;51.340;3.240;2023-08-17T10:24:45;6.75;;;2.72;;
13797;SDS011;6970;51.340;3.240;2023-08-17T10:27:15;6.28;;;2.28;;
13797;SDS011;6970;51.340;3.240;2023-08-17T10:29:47;10.57;;;2.63;;
13797;SDS011;6970;51.340;3.240;2023-08-17T10:32:17;9.93;;;3.15;;
13797;SDS011;6970;51.340;3.240;2023-08-17T10:34:44;12.25;;;3.00;;
13797;SDS011;6970;51.340;3.240;2023-08-17T10:37:11;10.98;;;2.53;;
13797;SDS011;6970;51.340;3.240;2023-08-17T10:39:44;12.93;;;2.55;;
13797;SDS011;6970;51.340;3.240;2023-08-17T10:42:13;27.27;;;4.97;;
13797;SDS011;6970;51.340;3.240;2023-08-17T10:44:49;23.45;;;4.13;;
13797;SDS011;6970;51.340;3.240;2023-08-17T10:49:57;25.83;;;4.32;;
13797;SDS011;6970;51.340;3.240;2023-08-17T10:52:33;19.23;;;3.70;;
13797;SDS011;6970;51.340;3.240;2023-08-17T10:55:07;15.18;;;3.92;;
13797;SDS011;6970;51.340;3.240;2023-08-17T10:57:39;26.15;;;4.40;;
13797;SDS011;6970;51.340;3.240;2023-08-17T11:00:14;18.83;;;4.50;;
13797;SDS011;6970;51.340;3.240;2023-08-17T11:05:53;23.05;;;4.03;;
13797;SDS011;6970;51.340;3.240;2023-08-17T11:11:07;17.98;;;4.13;;
13797;SDS011;6970;51.340;3.240;2023-08-17T11:13:38;16.30;;;3.50;;
13797;SDS011;6970;51.340;3.240;2023-08-17T11:18:43;14.73;;;4.10;;
13797;SDS011;6970;51.340;3.240;2023-08-17T11:21:14;15.90;;;4.13;;
13797;SDS011;6970;51.340;3.240;2023-08-17T11:23:47;21.95;;;4.80;;
13797;SDS011;6970;51.340;3.240;2023-08-17T11:28:50;23.50;;;4.25;;
13797;SDS011;6970;51.340;3.240;2023-08-17T11:31:21;21.90;;;4.25;;
13797;SDS011;6970;51.340;3.240;2023-08-17T11:36:21;23.05;;;4.80;;
13797;SDS011;6970;51.340;3.240;2023-08-17T11:38:49;25.13;;;4.68;;
13797;SDS011;6970;51.340;3.240;2023-08-17T11:41:16;19.15;;;4.80;;
13797;SDS011;6970;51.340;3.240;2023-08-17T11:43:46;23.73;;;5.20;;
13797;SDS011;6970;51.340;3.240;2023-08-17T11:46:13;23.63;;;4.63;;
13797;SDS011;6970;51.340;3.240;2023-08-17T11:48:43;16.77;;;4.50;;
13797;SDS011;6970;51.340;3.240;2023-08-17T11:51:10;12.80;;;3.33;;
13797;SDS011;6970;51.340;3.240;2023-08-17T11:53:41;18.33;;;3.90;;
13797;SDS011;6970;51.340;3.240;2023-08-17T11:56:16;15.48;;;3.75;;
13797;SDS011;6970;51.340;3.240;2023-08-17T11:58:43;10.80;;;3.30;;
13797;SDS011;6970;51.340;3.240;2023-08-17T12:01:14;13.70;;;3.83;;
13797;SDS011;6970;51.340;3.240;2023-08-17T12:03:46;23.67;;;4.30;;
13797;SDS011;6970;51.340;3.240;2023-08-17T12:06:16;24.02;;;4.38;;
13797;SDS011;6970;51.340;3.240;2023-08-17T12:11:18;20.83;;;4.70;;
13797;SDS011;6970;51.340;3.240;2023-08-17T12:13:52;11.85;;;3.30;;
13797;SDS011;6970;51.340;3.240;2023-08-17T12:16:22;16.73;;;3.65;;
13797;SDS011;6970;51.340;3.240;2023-08-17T12:18:53;13.75;;;4.15;;
13797;SDS011;6970;51.340;3.240;2023-08-17T12:21:23;18.38;;;3.90;;
13797;SDS011;6970;51.340;3.240;2023-08-17T12:23:56;13.48;;;3.50;;
13797;SDS011;6970;51.340;3.240;2023-08-17T12:26:26;13.85;;;3.47;;
13797;SDS011;6970;51.340;3.240;2023-08-17T12:31:28;27.45;;;4.25;;
13797;SDS011;6970;51.340;3.240;2023-08-17T12:36:27;14.90;;;3.28;;
13797;SDS011;6970;51.340;3.240;2023-08-17T12:38:54;13.80;;;3.70;;
13797;SDS011;6970;51.340;3.240;2023-08-17T12:41:22;10.20;;;3.20;;
13797;SDS011;6970;51.340;3.240;2023-08-17T12:43:56;17.27;;;3.58;;
13797;SDS011;6970;51.340;3.240;2023-08-17T12:46:26;11.90;;;3.30;;
13797;SDS011;6970;51.340;3.240;2023-08-17T12:48:58;13.85;;;3.67;;
13797;SDS011;6970;51.340;3.240;2023-08-17T12:51:28;20.00;;;3.65;;
13797;SDS011;6970;51.340;3.240;2023-08-17T12:53:57;18.88;;;3.90;;
13797;SDS011;6970;51.340;3.240;2023-08-17T12:56:24;13.63;;;3.75;;
13797;SDS011;6970;51.340;3.240;2023-08-17T12:58:52;14.60;;;3.50;;
13797;SDS011;6970;51.340;3.240;2023-08-17T13:01:20;13.27;;;3.33;;
13797;SDS011;6970;51.340;3.240;2023-08-17T13:03:48;9.98;;;2.95;;
13797;SDS011;6970;51.340;3.240;2023-08-17T13:06:17;12.43;;;3.38;;
13797;SDS011;6970;51.340;3.240;2023-08-17T13:08:50;10.10;;;3.00;;
13797;SDS011;6970;51.340;3.240;2023-08-17T13:11:20;12.38;;;3.47;;
13797;SDS011;6970;51.340;3.240;2023-08-17T13:13:50;20.20;;;4.22;;
13797;SDS011;6970;51.340;3.240;2023-08-17T13:18:51;19.00;;;3.88;;
13797;SDS011;6970;51.340;3.240;2023-08-17T13:21:18;13.98;;;3.83;;
13797;SDS011;6970;51.340;3.240;2023-08-17T13:23:49;18.10;;;3.47;;
13797;SDS011;6970;51.340;3.240;2023-08-17T13:26:17;11.13;;;3.00;;
13797;SDS011;6970;51.340;3.240;2023-08-17T13:29:00;13.48;;;3.20;;
13797;SDS011;6970;51.340;3.240;2023-08-17T13:31:30;12.00;;;3.53;;
13797;SDS011;6970;51.340;3.240;2023-08-17T13:33:59;12.65;;;3.55;;
13797;SDS011;6970;51.340;3.240;2023-08-17T13:36:29;11.45;;;3.30;;
13797;SDS011;6970;51.340;3.240;2023-08-17T13:41:28;11.85;;;3.58;;
13797;SDS011;6970;51.340;3.240;2023-08-17T13:46:28;10.07;;;2.67;;
13797;SDS011;6970;51.340;3.240;2023-08-17T13:48:55;20.43;;;3.73;;
13797;SDS011;6970;51.340;3.240;2023-08-17T13:51:24;12.95;;;3.53;;
13797;SDS011;6970;51.340;3.240;2023-08-17T13:53:52;15.60;;;3.60;;
13797;SDS011;6970;51.340;3.240;2023-08-17T13:56:19;17.52;;;4.15;;
13797;SDS011;6970;51.340;3.240;2023-08-17T13:58:47;13.07;;;3.35;;
13797;SDS011;6970;51.340;3.240;2023-08-17T14:01:17;13.17;;;2.90;;
13797;SDS011;6970;51.340;3.240;2023-08-17T14:03:45;7.83;;;3.97;;
13797;SDS011;6970;51.340;3.240;2023-08-17T14:06:12;13.50;;;3.80;;
13797;SDS011;6970;51.340;3.240;2023-08-17T14:08:46;15.53;;;3.83;;
13797;SDS011;6970;51.340;3.240;2023-08-17T14:11:13;8.20;;;3.50;;
13797;SDS011;6970;51.340;3.240;2023-08-17T14:13:40;11.00;;;4.17;;
13797;SDS011;6970;51.340;3.240;2023-08-17T14:16:08;11.13;;;3.85;;
13797;SDS011;6970;51.340;3.240;2023-08-17T14:18:41;9.68;;;3.70;;
13797;SDS011;6970;51.340;3.240;2023-08-17T14:23:40;17.83;;;5.10;;
13797;SDS011;6970;51.340;3.240;2023-08-17T14:26:13;12.87;;;6.13;;
13797;SDS011;6970;51.340;3.240;2023-08-17T14:31:12;18.93;;;7.10;;
13797;SDS011;6970;51.340;3.240;2023-08-17T14:33:44;10.90;;;6.73;;
13797;SDS011;6970;51.340;3.240;2023-08-17T14:36:14;17.73;;;7.13;;
13797;SDS011;6970;51.340;3.240;2023-08-17T14:38:44;17.47;;;8.13;;
13797;SDS011;6970;51.340;3.240;2023-08-17T14:41:12;11.23;;;7.23;;
13797;SDS011;6970;51.340;3.240;2023-08-17T14:43:42;13.80;;;7.17;;
13797;SDS011;6970;51.340;3.240;2023-08-17T14:46:11;26.30;;;9.37;;
13797;SDS011;6970;51.340;3.240;2023-08-17T14:48:42;12.73;;;6.77;;
13797;SDS011;6970;51.340;3.240;2023-08-17T14:51:10;13.60;;;7.87;;
13797;SDS011;6970;51.340;3.240;2023-08-17T14:53:39;15.57;;;7.57;;
13797;SDS011;6970;51.340;3.240;2023-08-17T14:56:09;21.23;;;8.33;;
13797;SDS011;6970;51.340;3.240;2023-08-17T14:58:39;13.77;;;7.33;;
13797;SDS011;6970;51.340;3.240;2023-08-17T15:01:06;16.83;;;8.07;;
13797;SDS011;6970;51.340;3.240;2023-08-17T15:03:34;18.57;;;7.97;;
13797;SDS011;6970;51.340;3.240;2023-08-17T15:06:02;7.87;;;7.00;;
13797;SDS011;6970;51.340;3.240;2023-08-17T15:08:33;11.80;;;7.97;;
13797;SDS011;6970;51.340;3.240;2023-08-17T15:11:03;11.40;;;7.87;;
13797;SDS011;6970;51.340;3.240;2023-08-17T15:13:30;11.50;;;7.93;;
13797;SDS011;6970;51.340;3.240;2023-08-17T15:15:58;16.50;;;8.20;;
13797;SDS011;6970;51.340;3.240;2023-08-17T15:20:56;12.33;;;7.17;;
13797;SDS011;6970;51.340;3.240;2023-08-17T15:23:24;13.93;;;7.47;;
13797;SDS011;6970;51.340;3.240;2023-08-17T15:28:21;14.87;;;7.37;;
13797;SDS011;6970;51.340;3.240;2023-08-17T15:30:59;11.70;;;7.23;;
13797;SDS011;6970;51.340;3.240;2023-08-17T15:36:03;8.13;;;6.23;;
13797;SDS011;6970;51.340;3.240;2023-08-17T15:38:30;8.00;;;7.30;;
13797;SDS011;6970;51.340;3.240;2023-08-17T15:40:57;13.93;;;7.43;;
13797;SDS011;6970;51.340;3.240;2023-08-17T15:43:27;13.37;;;7.17;;
13797;SDS011;6970;51.340;3.240;2023-08-17T15:45:58;10.07;;;6.50;;
13797;SDS011;6970;51.340;3.240;2023-08-17T15:48:27;13.47;;;7.13;;
13797;SDS011;6970;51.340;3.240;2023-08-17T15:50:59;13.03;;;6.67;;
13797;SDS011;6970;51.340;3.240;2023-08-17T15:53:29;8.30;;;7.50;;
13797;SDS011;6970;51.340;3.240;2023-08-17T15:55:56;12.10;;;8.63;;
13797;SDS011;6970;51.340;3.240;2023-08-17T15:58:27;8.17;;;7.27;;
13797;SDS011;6970;51.340;3.240;2023-08-17T16:00:55;10.47;;;8.10;;
13797;SDS011;6970;51.340;3.240;2023-08-17T16:03:24;12.07;;;7.97;;
13797;SDS011;6970;51.340;3.240;2023-08-17T16:05:51;12.87;;;8.90;;
13797;SDS011;6970;51.340;3.240;2023-08-17T16:11:04;11.00;;;8.03;;
13797;SDS011;6970;51.340;3.240;2023-08-17T16:13:35;9.03;;;8.13;;
13797;SDS011;6970;51.340;3.240;2023-08-17T16:16:03;9.57;;;8.40;;
13797;SDS011;6970;51.340;3.240;2023-08-17T16:23:43;7.67;;;6.87;;
13797;SDS011;6970;51.340;3.240;2023-08-17T16:26:10;10.13;;;8.40;;
13797;SDS011;6970;51.340;3.240;2023-08-17T16:28:39;8.70;;;7.37;;
13797;SDS011;6970;51.340;3.240;2023-08-17T16:31:12;8.73;;;7.73;;
13797;SDS011;6970;51.340;3.240;2023-08-17T16:33:45;8.53;;;7.73;;
13797;SDS011;6970;51.340;3.240;2023-08-17T16:36:14;10.13;;;8.30;;
13797;SDS011;6970;51.340;3.240;2023-08-17T16:38:43;10.87;;;8.93;;
13797;SDS011;6970;51.340;3.240;2023-08-17T16:41:16;11.83;;;8.03;;
13797;SDS011;6970;51.340;3.240;2023-08-17T16:43:44;9.07;;;6.87;;
13797;SDS011;6970;51.340;3.240;2023-08-17T16:48:44;7.97;;;7.23;;
13797;SDS011;6970;51.340;3.240;2023-08-17T16:51:11;8.27;;;7.47;;
13797;SDS011;6970;51.340;3.240;2023-08-17T16:53:39;11.60;;;9.10;;
13797;SDS011;6970;51.340;3.240;2023-08-17T16:56:12;9.37;;;8.47;;
13797;SDS011;6970;51.340;3.240;2023-08-17T16:58:43;12.77;;;9.70;;
13797;SDS011;6970;51.340;3.240;2023-08-17T17:01:13;10.93;;;8.33;;
13797;SDS011;6970;51.340;3.240;2023-08-17T17:03:42;12.97;;;9.83;;
13797;SDS011;6970;51.340;3.240;2023-08-17T17:06:10;11.23;;;8.83;;
13797;SDS011;6970;51.340;3.240;2023-08-17T17:08:38;10.43;;;9.53;;
13797;SDS011;6970;51.340;3.240;2023-08-17T17:11:07;12.30;;;9.90;;
13797;SDS011;6970;51.340;3.240;2023-08-17T17:13:35;11.00;;;9.90;;
13797;SDS011;6970;51.340;3.240;2023-08-17T17:16:05;13.17;;;9.30;;
13797;SDS011;6970;51.340;3.240;2023-08-17T17:18:34;11.00;;;9.90;;
13797;SDS011;6970;51.340;3.240;2023-08-17T17:21:05;10.97;;;9.70;;
13797;SDS011;6970;51.340;3.240;2023-08-17T17:23:34;13.13;;;10.93;;
13797;SDS011;6970;51.340;3.240;2023-08-17T17:26:03;15.17;;;10.57;;
13797;SDS011;6970;51.340;3.240;2023-08-17T17:28:34;12.53;;;10.70;;
13797;SDS011;6970;51.340;3.240;2023-08-17T17:38:33;15.50;;;10.67;;
13797;SDS011;6970;51.340;3.240;2023-08-17T17:41:01;11.93;;;10.70;;
13797;SDS011;6970;51.340;3.240;2023-08-17T17:43:30;11.80;;;10.60;;
13797;SDS011;6970;51.340;3.240;2023-08-17T17:45:57;14.27;;;11.10;;
13797;SDS011;6970;51.340;3.240;2023-08-17T17:48:26;11.80;;;10.60;;
13797;SDS011;6970;51.340;3.240;2023-08-17T17:50:53;11.37;;;10.13;;
13797;SDS011;6970;51.340;3.240;2023-08-17T17:53:24;17.07;;;11.87;;
13797;SDS011;6970;51.340;3.240;2023-08-17T17:55:53;11.83;;;10.63;;
13797;SDS011;6970;51.340;3.240;2023-08-17T17:58:20;11.27;;;10.07;;
13797;SDS011;6970;51.340;3.240;2023-08-17T18:00:49;11.27;;;10.10;;
13797;SDS011;6970;51.340;3.240;2023-08-17T18:05:50;11.90;;;11.00;;
13797;SDS011;6970;51.340;3.240;2023-08-17T18:10:50;15.93;;;11.40;;